Cougar Ace — 9VKE — position and weather

sailwx.info

Track history (hours):
 
Tides and Currents Weather Stations Pressure Air Temp Water Temp Dewpoint Dewpoint Depression Visibility Wind Speed Wind Dir Waves Ship Positions

Cougar Ace

Last reported at 2017-Oct-20 02:25 UTC. Time now 2017-Nov-17 23:17 UTC.
Position N 28°51' W 116°07'.
Warning: this ship's position is 28 days out of date.

Length 200 m; draft 7.6 m.

Type: Cargo ship. MMSI: 563329000.

Date/timePositionNaut miles runAvg speedWind from/ knotsBaromVisibWave heightAir tempDewpointWater temp
2017-Oct-20 02:25N 28°51' W 116°07'717.3
2017-Oct-20 02:00N 28°58' W 116°10'1017.5
2017-Oct-20 01:24N 29°08' W 116°13'717.8
2017-Oct-20 00:59N 29°15' W 116°15'917.7
2017-Oct-20 00:28N 29°24' W 116°18'817.7
2017-Oct-19 23:59N 29°32' W 116°22'917.4
2017-Oct-19 23:30N 29°40' W 116°25'917.5
2017-Oct-19 22:58N 29°49' W 116°28'1017.6
2017-Oct-19 22:22N 29°59' W 116°31'917.4
2017-Oct-19 21:51N 30°07' W 116°34'617.2
2017-Oct-19 21:30N 30°13' W 116°37'917.4
2017-Oct-19 21:00N 30°21' W 116°40'817.4
2017-Oct-19 20:30N 30°30' W 116°42'917.4
2017-Oct-19 20:00N 30°38' W 116°45'917.3
2017-Oct-19 19:30N 30°46' W 116°48'917.0
2017-Oct-19 19:00N 30°54' W 116°51'2817.4
2017-Oct-19 17:25N 31°21' W 117°01'717.4
2017-Oct-19 16:59N 31°28' W 117°03'917.3
2017-Oct-19 16:29N 31°36' W 117°06'2016.1
2017-Oct-19 15:13N 31°56' W 117°13'2215.6
2017-Oct-19 13:47N 32°17' W 117°21'1915.0
2017-Oct-19 12:30N 32°36' W 117°16'8 0.4
2017-Oct-18 16:13N 32°39' W 117°07'0 0.0
2017-Oct-18 15:55N 32°39' W 117°07'0 0.0
2017-Oct-18 15:19N 32°39' W 117°07'0 0.0
2017-Oct-18 14:55N 32°39' W 117°07'0 0.0
2017-Oct-18 13:55N 32°39' W 117°07'0 0.0
2017-Oct-18 13:31N 32°39' W 117°07'1 2.5
2017-Oct-18 13:00N 32°40' W 117°08'5 8.4
2017-Oct-18 12:23N 32°41' W 117°14'410.0
2017-Oct-18 12:00N 32°38' W 117°14'3 5.7
2017-Oct-18 11:24N 32°38' W 117°18'3 6.4
2017-Oct-18 11:01N 32°39' W 117°21'5 9.7
2017-Oct-18 10:31N 32°42' W 117°25'5 9.5
2017-Oct-18 10:01N 32°45' W 117°29'4 7.9
2017-Oct-18 09:31N 32°49' W 117°32'4 8.6
2017-Oct-18 09:01N 32°52' W 117°35'5 9.1
2017-Oct-18 08:31N 32°55' W 117°38'5 9.3
2017-Oct-18 08:01N 32°59' W 117°42'5 9.1
2017-Oct-18 07:30N 33°02' W 117°46'5 9.1
2017-Oct-18 07:00N 33°06' W 117°49'4 7.1
2017-Oct-18 06:31N 33°09' W 117°51'0 0.9
2017-Oct-18 06:01N 33°09' W 117°52'0 0.7
2017-Oct-18 05:30N 33°08' W 117°52'0 0.6
2017-Oct-18 05:01N 33°08' W 117°51'0 0.5
2017-Oct-18 04:30N 33°08' W 117°51'0 0.4
2017-Oct-18 04:01N 33°07' W 117°51'0 0.2
2017-Oct-18 03:31N 33°07' W 117°51'0 0.2
2017-Oct-18 03:01N 33°07' W 117°51'0 0.2
2017-Oct-18 02:31N 33°07' W 117°52'0 0.4
2017-Oct-18 02:01N 33°07' W 117°52'0 0.5
2017-Oct-18 01:31N 33°07' W 117°52'0 0.4
2017-Oct-18 01:01N 33°07' W 117°52'0 0.5
2017-Oct-18 00:31N 33°07' W 117°52'0 0.4
2017-Oct-18 00:00N 33°07' W 117°53'0 0.5
2017-Oct-17 23:31N 33°07' W 117°53'0 0.6
2017-Oct-17 23:01N 33°07' W 117°53'1 1.2
2017-Oct-17 22:31N 33°07' W 117°53'4 8.3
2017-Oct-17 22:01N 33°08' W 117°48'0 0.9
2017-Oct-17 21:31N 33°08' W 117°47'1 1.0
2017-Oct-17 21:01N 33°08' W 117°48'0 0.8
2017-Oct-17 20:30N 33°08' W 117°48'0 0.7
2017-Oct-17 20:00N 33°09' W 117°48'0 0.5
2017-Oct-17 19:30N 33°09' W 117°49'0 0.5
2017-Oct-17 19:01N 33°08' W 117°49'0 0.7
2017-Oct-17 18:31N 33°08' W 117°49'0 0.5
2017-Oct-17 18:01N 33°08' W 117°50'0 0.6
2017-Oct-17 17:31N 33°08' W 117°50'0 0.7
2017-Oct-17 17:01N 33°08' W 117°50'0 0.8
2017-Oct-17 16:31N 33°08' W 117°51'0 1.0
2017-Oct-17 16:01N 33°07' W 117°51'1 1.6
2017-Oct-17 15:31N 33°06' W 117°51'2 4.0
2017-Oct-17 15:01N 33°06' W 117°53'3 5.2
2017-Oct-17 14:30N 33°08' W 117°56'0 0.2
2017-Oct-17 14:00N 33°08' W 117°56'0 0.3
2017-Oct-17 13:31N 33°07' W 117°56'0 0.3
2017-Oct-17 13:00N 33°07' W 117°56'0 0.3
2017-Oct-17 12:30N 33°07' W 117°56'0 0.3
2017-Oct-17 12:00N 33°07' W 117°56'0 0.2
2017-Oct-17 11:31N 33°07' W 117°56'0 0.3
2017-Oct-17 11:00N 33°07' W 117°56'0 0.2
2017-Oct-17 10:31N 33°07' W 117°56'0 0.2
2017-Oct-17 10:00N 33°07' W 117°55'0 0.3
2017-Oct-17 09:31N 33°07' W 117°55'0 0.3
2017-Oct-17 09:00N 33°07' W 117°55'0 0.5
2017-Oct-17 08:31N 33°07' W 117°55'0 0.4
2017-Oct-17 08:00N 33°06' W 117°55'0 0.4
2017-Oct-17 07:31N 33°06' W 117°55'0 0.2
2017-Oct-17 07:01N 33°06' W 117°55'0 0.4
2017-Oct-17 06:30N 33°06' W 117°54'0 0.6
2017-Oct-17 06:00N 33°06' W 117°54'0 0.6
2017-Oct-17 05:30N 33°07' W 117°54'0 0.4
2017-Oct-17 05:00N 33°07' W 117°54'2 4.5
2017-Oct-17 04:30N 33°08' W 117°56'510.8
2017-Oct-17 04:00N 33°12' W 118°00'510.8
2017-Oct-17 03:31N 33°16' W 118°05'510.9
2017-Oct-17 03:01N 33°21' W 118°07'611.2
2017-Oct-17 02:31N 33°26' W 118°09'611.3
2017-Oct-17 02:00N 33°32' W 118°12'511.0
2017-Oct-17 01:30N 33°37' W 118°13'510.3
2017-Oct-17 01:00N 33°42' W 118°15'3 5.7
2017-Oct-17 00:30N 33°45' W 118°17'2 2.7
2017-Oct-16 23:53N 33°46' W 118°15'0 0.0
2017-Oct-16 23:29N 33°46' W 118°15'0 0.0
2017-Oct-16 22:17N 33°46' W 118°15'0 0.0
2017-Oct-16 21:59N 33°46' W 118°15'0 0.0
2017-Oct-16 21:29N 33°46' W 118°15'0 0.0
2017-Oct-16 20:53N 33°46' W 118°15'0 0.0
2017-Oct-16 20:29N 33°46' W 118°15'0 0.0
2017-Oct-16 19:59N 33°46' W 118°15'0 0.0
2017-Oct-16 19:29N 33°46' W 118°15'0 0.0
2017-Oct-16 18:59N 33°46' W 118°15'0 0.0
2017-Oct-16 18:29N 33°46' W 118°15'0 0.0
2017-Oct-16 17:59N 33°46' W 118°15'0 0.0
2017-Oct-16 17:05N 33°46' W 118°15'0 0.0
2017-Oct-16 16:59N 33°46' W 118°15'0 0.0
2017-Oct-16 16:11N 33°46' W 118°15'0 0.0
2017-Oct-16 08:07N 33°46' W 118°15'0 0.0
2017-Oct-16 07:49N 33°46' W 118°15'0 0.0
2017-Oct-16 07:25N 33°46' W 118°15'0 0.0
2017-Oct-16 06:55N 33°46' W 118°15'0 0.0
2017-Oct-16 06:13N 33°46' W 118°15'0 0.0
2017-Oct-16 05:55N 33°46' W 118°15'0 0.0
2017-Oct-16 05:01N 33°46' W 118°15'0 0.0
2017-Oct-16 04:55N 33°46' W 118°15'0 0.0
2017-Oct-16 03:49N 33°46' W 118°15'0 0.0
2017-Oct-16 03:01N 33°46' W 118°15'0 0.0
2017-Oct-16 01:55N 33°46' W 118°15'0 0.4
2017-Oct-16 01:30N 33°46' W 118°15'1 2.7
2017-Oct-16 01:00N 33°45' W 118°16'3 5.0
2017-Oct-16 00:30N 33°43' W 118°15'4 8.4
2017-Oct-16 00:00N 33°39' W 118°13'4 7.4
2017-Oct-15 23:29N 33°36' W 118°17'5 9.5
2017-Oct-15 22:59N 33°36' W 118°22'4 9.4
2017-Oct-15 22:30N 33°36' W 118°28'5 9.8
2017-Oct-15 21:59N 33°36' W 118°34'4 8.9
2017-Oct-15 21:30N 33°36' W 118°39'610.7
2017-Oct-15 20:59N 33°37' W 118°46'510.8
2017-Oct-15 20:29N 33°37' W 118°52'611.0
2017-Oct-15 19:59N 33°38' W 118°59'510.5
2017-Oct-15 19:30N 33°38' W 119°05'611.0
2017-Oct-15 18:59N 33°38' W 119°12'611.1
2017-Oct-15 18:28N 33°38' W 119°18'511.0
2017-Oct-15 18:00N 33°38' W 119°25'611.5
2017-Oct-15 17:30N 33°38' W 119°32'612.2
2017-Oct-15 17:00N 33°38' W 119°39'612.3
2017-Oct-15 16:30N 33°38' W 119°46'612.6
2017-Oct-15 16:00N 33°38' W 119°54'612.7
2017-Oct-15 15:30N 33°37' W 120°01'611.3
2017-Oct-15 15:00N 33°37' W 120°08'1211.7
2017-Oct-15 14:00N 33°36' W 120°22'611.8
2017-Oct-15 13:30N 33°36' W 120°29'611.7
2017-Oct-15 13:00N 33°35' W 120°36'611.7
2017-Oct-15 12:30N 33°35' W 120°43'611.6
2017-Oct-15 11:59N 33°34' W 120°51'611.7
2017-Oct-15 11:30N 33°34' W 120°57'611.8
2017-Oct-15 11:00N 33°33' W 121°04'611.8
2017-Oct-15 10:30N 33°33' W 121°11'611.8
2017-Oct-15 10:00N 33°32' W 121°18'612.1
2017-Oct-15 09:30N 33°32' W 121°26'612.0
2017-Oct-15 08:59N 33°31' W 121°33'712.0
2017-Oct-15 08:23N 33°30' W 121°42'511.9
2017-Oct-15 07:58N 33°30' W 121°48'611.7
2017-Oct-15 07:30N 33°29' W 121°54'611.8
2017-Oct-15 06:58N 33°29' W 122°02'511.9
2017-Oct-15 06:30N 33°27' W 122°08'3 6.9
2017-Oct-15 06:00N 33°26' W 122°12'1 2.2
2017-Oct-15 05:30N 33°26' W 122°13'1 2.1
2017-Oct-15 04:59N 33°27' W 122°14'1 2.1
2017-Oct-15 04:30N 33°27' W 122°15'1 2.6
2017-Oct-15 04:00N 33°28' W 122°17'511.1
2017-Oct-15 03:30N 33°27' W 122°23'713.7
2017-Oct-15 03:00N 33°26' W 122°31'713.5
2017-Oct-15 02:30N 33°25' W 122°39'713.5
2017-Oct-15 01:59N 33°23' W 122°47'613.4
2017-Oct-15 01:30N 33°21' W 122°55'713.6
2017-Oct-15 01:00N 33°19' W 123°02'18 5.0
2017-Oct-14 21:26N 33°18' W 123°24'3 1.7
2017-Oct-14 19:44N 33°19' W 123°27'0 1.8
2017-Oct-14 19:29N 33°20' W 123°27'2 1.8
2017-Oct-14 18:34N 33°21' W 123°28'0 2.2
2017-Oct-14 18:30N 33°21' W 123°28'2 2.3
2017-Oct-14 17:42N 33°22' W 123°30'2 7.6
2017-Oct-14 17:30N 33°22' W 123°32'611.7
2017-Oct-14 17:00N 33°21' W 123°39'612.7
2017-Oct-14 16:30N 33°21' W 123°47'612.7
2017-Oct-14 16:00N 33°20' W 123°54'712.6
2017-Oct-14 15:26N 33°20' W 124°03'612.4
2017-Oct-14 14:57N 33°19' W 124°10'612.4
2017-Oct-14 14:27N 33°18' W 124°17'612.2
2017-Oct-14 13:59N 33°18' W 124°24'  
2017-Oct-10 23:59N 49°08' W 123°04'0 0.0
2017-Oct-10 23:29N 49°08' W 123°04'0 0.0
2017-Oct-10 22:59N 49°08' W 123°04'0 0.0
2017-Oct-10 22:29N 49°08' W 123°04'0 0.0
2017-Oct-10 21:59N 49°08' W 123°04'0 0.0
2017-Oct-10 21:29N 49°08' W 123°04'0 0.0
2017-Oct-10 20:59N 49°08' W 123°04'0 0.0
2017-Oct-10 20:29N 49°08' W 123°04'0 0.0
2017-Oct-10 19:59N 49°08' W 123°04'0 0.0
2017-Oct-10 19:29N 49°08' W 123°04'0 0.0
2017-Oct-10 18:59N 49°08' W 123°04'0 0.0
2017-Oct-10 18:29N 49°08' W 123°04'0 0.0
2017-Oct-10 17:59N 49°08' W 123°04'0 0.0
2017-Oct-10 17:29N 49°08' W 123°04'0 0.0
2017-Oct-10 16:59N 49°08' W 123°04'0 0.0
2017-Oct-10 16:29N 49°08' W 123°04'0 0.0
2017-Oct-10 15:59N 49°08' W 123°04'0 0.0
2017-Oct-10 15:29N 49°08' W 123°04'0 0.9
2017-Oct-10 15:00N 49°07' W 123°05'1010.3
2017-Oct-10 14:00N 49°05' W 123°20'4 7.9
2017-Oct-10 13:30N 49°02' W 123°17'714.7
2017-Oct-10 13:00N 48°57' W 123°09'816.8
2017-Oct-10 12:30N 48°50' W 123°01'815.3
2017-Oct-10 12:00N 48°44' W 123°08'713.3
2017-Oct-10 11:30N 48°38' W 123°14'815.8
2017-Oct-10 11:01N 48°31' W 123°11'714.6
2017-Oct-10 10:31N 48°24' W 123°12'713.8
2017-Oct-10 10:00N 48°22' W 123°22'5 9.2
2017-Oct-10 09:31N 48°18' W 123°25'713.1
2017-Oct-10 09:00N 48°11' W 123°25'510.4
2017-Oct-10 08:30N 48°10' W 123°17'917.6
2017-Oct-10 08:00N 48°13' W 123°05'1118.6
2017-Oct-10 07:26N 48°12' W 122°49'1019.3
2017-Oct-10 06:56N 48°05' W 122°39'819.6
2017-Oct-10 06:31N 47°57' W 122°33'917.6
2017-Oct-10 06:00N 47°50' W 122°27'817.0
2017-Oct-10 05:31N 47°41' W 122°27'917.1
2017-Oct-10 05:01N 47°33' W 122°26'816.7
2017-Oct-10 04:31N 47°25' W 122°22'713.9
2017-Oct-10 04:00N 47°19' W 122°27'3 6.1
2017-Oct-10 03:28N 47°16' W 122°24'1 2.0
2017-Oct-10 02:56N 47°16' W 122°23'  
Track history (hours):
 
Tides and Currents Weather Stations Pressure Air Temp Water Temp Dewpoint Dewpoint Depression Visibility Wind Speed Wind Dir Waves Ship Positions

Cougar Ace

Last reported at 2017-Oct-20 02:25 UTC. Time now 2017-Nov-17 23:17 UTC.
Position N 28°51' W 116°07'.
Warning: this ship's position is 28 days out of date.

Length 200 m; draft 7.6 m.

Type: Cargo ship. MMSI: 563329000.

Date/timePositionNaut miles runAvg speedWind from/ knotsBaromVisibWave heightAir tempDewpointWater temp
2017-Oct-20 02:25N 28°51' W 116°07'717.3
2017-Oct-20 02:00N 28°58' W 116°10'1017.5
2017-Oct-20 01:24N 29°08' W 116°13'717.8
2017-Oct-20 00:59N 29°15' W 116°15'917.7
2017-Oct-20 00:28N 29°24' W 116°18'817.7
2017-Oct-19 23:59N 29°32' W 116°22'917.4
2017-Oct-19 23:30N 29°40' W 116°25'917.5
2017-Oct-19 22:58N 29°49' W 116°28'1017.6
2017-Oct-19 22:22N 29°59' W 116°31'917.4
2017-Oct-19 21:51N 30°07' W 116°34'617.2
2017-Oct-19 21:30N 30°13' W 116°37'917.4
2017-Oct-19 21:00N 30°21' W 116°40'817.4
2017-Oct-19 20:30N 30°30' W 116°42'917.4
2017-Oct-19 20:00N 30°38' W 116°45'917.3
2017-Oct-19 19:30N 30°46' W 116°48'917.0
2017-Oct-19 19:00N 30°54' W 116°51'2817.4
2017-Oct-19 17:25N 31°21' W 117°01'717.4
2017-Oct-19 16:59N 31°28' W 117°03'917.3
2017-Oct-19 16:29N 31°36' W 117°06'2016.1
2017-Oct-19 15:13N 31°56' W 117°13'2215.6
2017-Oct-19 13:47N 32°17' W 117°21'1915.0
2017-Oct-19 12:30N 32°36' W 117°16'8 0.4
2017-Oct-18 16:13N 32°39' W 117°07'0 0.0
2017-Oct-18 15:55N 32°39' W 117°07'0 0.0
2017-Oct-18 15:19N 32°39' W 117°07'0 0.0
2017-Oct-18 14:55N 32°39' W 117°07'0 0.0
2017-Oct-18 13:55N 32°39' W 117°07'0 0.0
2017-Oct-18 13:31N 32°39' W 117°07'1 2.5
2017-Oct-18 13:00N 32°40' W 117°08'5 8.4
2017-Oct-18 12:23N 32°41' W 117°14'410.0
2017-Oct-18 12:00N 32°38' W 117°14'3 5.7
2017-Oct-18 11:24N 32°38' W 117°18'3 6.4
2017-Oct-18 11:01N 32°39' W 117°21'5 9.7
2017-Oct-18 10:31N 32°42' W 117°25'5 9.5
2017-Oct-18 10:01N 32°45' W 117°29'4 7.9
2017-Oct-18 09:31N 32°49' W 117°32'4 8.6
2017-Oct-18 09:01N 32°52' W 117°35'5 9.1
2017-Oct-18 08:31N 32°55' W 117°38'5 9.3
2017-Oct-18 08:01N 32°59' W 117°42'5 9.1
2017-Oct-18 07:30N 33°02' W 117°46'5 9.1
2017-Oct-18 07:00N 33°06' W 117°49'4 7.1
2017-Oct-18 06:31N 33°09' W 117°51'0 0.9
2017-Oct-18 06:01N 33°09' W 117°52'0 0.7
2017-Oct-18 05:30N 33°08' W 117°52'0 0.6
2017-Oct-18 05:01N 33°08' W 117°51'0 0.5
2017-Oct-18 04:30N 33°08' W 117°51'0 0.4
2017-Oct-18 04:01N 33°07' W 117°51'0 0.2
2017-Oct-18 03:31N 33°07' W 117°51'0 0.2
2017-Oct-18 03:01N 33°07' W 117°51'0 0.2
2017-Oct-18 02:31N 33°07' W 117°52'0 0.4
2017-Oct-18 02:01N 33°07' W 117°52'0 0.5
2017-Oct-18 01:31N 33°07' W 117°52'0 0.4
2017-Oct-18 01:01N 33°07' W 117°52'0 0.5
2017-Oct-18 00:31N 33°07' W 117°52'0 0.4
2017-Oct-18 00:00N 33°07' W 117°53'0 0.5
2017-Oct-17 23:31N 33°07' W 117°53'0 0.6
2017-Oct-17 23:01N 33°07' W 117°53'1 1.2
2017-Oct-17 22:31N 33°07' W 117°53'4 8.3
2017-Oct-17 22:01N 33°08' W 117°48'0 0.9
2017-Oct-17 21:31N 33°08' W 117°47'1 1.0
2017-Oct-17 21:01N 33°08' W 117°48'0 0.8
2017-Oct-17 20:30N 33°08' W 117°48'0 0.7
2017-Oct-17 20:00N 33°09' W 117°48'0 0.5
2017-Oct-17 19:30N 33°09' W 117°49'0 0.5
2017-Oct-17 19:01N 33°08' W 117°49'0 0.7
2017-Oct-17 18:31N 33°08' W 117°49'0 0.5
2017-Oct-17 18:01N 33°08' W 117°50'0 0.6
2017-Oct-17 17:31N 33°08' W 117°50'0 0.7
2017-Oct-17 17:01N 33°08' W 117°50'0 0.8
2017-Oct-17 16:31N 33°08' W 117°51'0 1.0
2017-Oct-17 16:01N 33°07' W 117°51'1 1.6
2017-Oct-17 15:31N 33°06' W 117°51'2 4.0
2017-Oct-17 15:01N 33°06' W 117°53'3 5.2
2017-Oct-17 14:30N 33°08' W 117°56'0 0.2
2017-Oct-17 14:00N 33°08' W 117°56'0 0.3
2017-Oct-17 13:31N 33°07' W 117°56'0 0.3
2017-Oct-17 13:00N 33°07' W 117°56'0 0.3
2017-Oct-17 12:30N 33°07' W 117°56'0 0.3
2017-Oct-17 12:00N 33°07' W 117°56'0 0.2
2017-Oct-17 11:31N 33°07' W 117°56'0 0.3
2017-Oct-17 11:00N 33°07' W 117°56'0 0.2
2017-Oct-17 10:31N 33°07' W 117°56'0 0.2
2017-Oct-17 10:00N 33°07' W 117°55'0 0.3
2017-Oct-17 09:31N 33°07' W 117°55'0 0.3
2017-Oct-17 09:00N 33°07' W 117°55'0 0.5
2017-Oct-17 08:31N 33°07' W 117°55'0 0.4
2017-Oct-17 08:00N 33°06' W 117°55'0 0.4
2017-Oct-17 07:31N 33°06' W 117°55'0 0.2
2017-Oct-17 07:01N 33°06' W 117°55'0 0.4
2017-Oct-17 06:30N 33°06' W 117°54'0 0.6
2017-Oct-17 06:00N 33°06' W 117°54'0 0.6
2017-Oct-17 05:30N 33°07' W 117°54'0 0.4
2017-Oct-17 05:00N 33°07' W 117°54'2 4.5
2017-Oct-17 04:30N 33°08' W 117°56'510.8
2017-Oct-17 04:00N 33°12' W 118°00'510.8
2017-Oct-17 03:31N 33°16' W 118°05'510.9
2017-Oct-17 03:01N 33°21' W 118°07'611.2
2017-Oct-17 02:31N 33°26' W 118°09'611.3
2017-Oct-17 02:00N 33°32' W 118°12'511.0
2017-Oct-17 01:30N 33°37' W 118°13'510.3
2017-Oct-17 01:00N 33°42' W 118°15'3 5.7
2017-Oct-17 00:30N 33°45' W 118°17'2 2.7
2017-Oct-16 23:53N 33°46' W 118°15'0 0.0
2017-Oct-16 23:29N 33°46' W 118°15'0 0.0
2017-Oct-16 22:17N 33°46' W 118°15'0 0.0
2017-Oct-16 21:59N 33°46' W 118°15'0 0.0
2017-Oct-16 21:29N 33°46' W 118°15'0 0.0
2017-Oct-16 20:53N 33°46' W 118°15'0 0.0
2017-Oct-16 20:29N 33°46' W 118°15'0 0.0
2017-Oct-16 19:59N 33°46' W 118°15'0 0.0
2017-Oct-16 19:29N 33°46' W 118°15'0 0.0
2017-Oct-16 18:59N 33°46' W 118°15'0 0.0
2017-Oct-16 18:29N 33°46' W 118°15'0 0.0
2017-Oct-16 17:59N 33°46' W 118°15'0 0.0
2017-Oct-16 17:05N 33°46' W 118°15'0 0.0
2017-Oct-16 16:59N 33°46' W 118°15'0 0.0
2017-Oct-16 16:11N 33°46' W 118°15'0 0.0
2017-Oct-16 08:07N 33°46' W 118°15'0 0.0
2017-Oct-16 07:49N 33°46' W 118°15'0 0.0
2017-Oct-16 07:25N 33°46' W 118°15'0 0.0
2017-Oct-16 06:55N 33°46' W 118°15'0 0.0
2017-Oct-16 06:13N 33°46' W 118°15'0 0.0
2017-Oct-16 05:55N 33°46' W 118°15'0 0.0
2017-Oct-16 05:01N 33°46' W 118°15'0 0.0
2017-Oct-16 04:55N 33°46' W 118°15'0 0.0
2017-Oct-16 03:49N 33°46' W 118°15'0 0.0
2017-Oct-16 03:01N 33°46' W 118°15'0 0.0
2017-Oct-16 01:55N 33°46' W 118°15'0 0.4
2017-Oct-16 01:30N 33°46' W 118°15'1 2.7
2017-Oct-16 01:00N 33°45' W 118°16'3 5.0
2017-Oct-16 00:30N 33°43' W 118°15'4 8.4
2017-Oct-16 00:00N 33°39' W 118°13'4 7.4
2017-Oct-15 23:29N 33°36' W 118°17'5 9.5
2017-Oct-15 22:59N 33°36' W 118°22'4 9.4
2017-Oct-15 22:30N 33°36' W 118°28'5 9.8
2017-Oct-15 21:59N 33°36' W 118°34'4 8.9
2017-Oct-15 21:30N 33°36' W 118°39'610.7
2017-Oct-15 20:59N 33°37' W 118°46'510.8
2017-Oct-15 20:29N 33°37' W 118°52'611.0
2017-Oct-15 19:59N 33°38' W 118°59'510.5
2017-Oct-15 19:30N 33°38' W 119°05'611.0
2017-Oct-15 18:59N 33°38' W 119°12'611.1
2017-Oct-15 18:28N 33°38' W 119°18'511.0
2017-Oct-15 18:00N 33°38' W 119°25'611.5
2017-Oct-15 17:30N 33°38' W 119°32'612.2
2017-Oct-15 17:00N 33°38' W 119°39'612.3
2017-Oct-15 16:30N 33°38' W 119°46'612.6
2017-Oct-15 16:00N 33°38' W 119°54'612.7
2017-Oct-15 15:30N 33°37' W 120°01'611.3
2017-Oct-15 15:00N 33°37' W 120°08'1211.7
2017-Oct-15 14:00N 33°36' W 120°22'611.8
2017-Oct-15 13:30N 33°36' W 120°29'611.7
2017-Oct-15 13:00N 33°35' W 120°36'611.7
2017-Oct-15 12:30N 33°35' W 120°43'611.6
2017-Oct-15 11:59N 33°34' W 120°51'611.7
2017-Oct-15 11:30N 33°34' W 120°57'611.8
2017-Oct-15 11:00N 33°33' W 121°04'611.8
2017-Oct-15 10:30N 33°33' W 121°11'611.8
2017-Oct-15 10:00N 33°32' W 121°18'612.1
2017-Oct-15 09:30N 33°32' W 121°26'612.0
2017-Oct-15 08:59N 33°31' W 121°33'712.0
2017-Oct-15 08:23N 33°30' W 121°42'511.9
2017-Oct-15 07:58N 33°30' W 121°48'611.7
2017-Oct-15 07:30N 33°29' W 121°54'611.8
2017-Oct-15 06:58N 33°29' W 122°02'511.9
2017-Oct-15 06:30N 33°27' W 122°08'3 6.9
2017-Oct-15 06:00N 33°26' W 122°12'1 2.2
2017-Oct-15 05:30N 33°26' W 122°13'1 2.1
2017-Oct-15 04:59N 33°27' W 122°14'1 2.1
2017-Oct-15 04:30N 33°27' W 122°15'1 2.6
2017-Oct-15 04:00N 33°28' W 122°17'511.1
2017-Oct-15 03:30N 33°27' W 122°23'713.7
2017-Oct-15 03:00N 33°26' W 122°31'713.5
2017-Oct-15 02:30N 33°25' W 122°39'713.5
2017-Oct-15 01:59N 33°23' W 122°47'613.4
2017-Oct-15 01:30N 33°21' W 122°55'713.6
2017-Oct-15 01:00N 33°19' W 123°02'18 5.0
2017-Oct-14 21:26N 33°18' W 123°24'3 1.7
2017-Oct-14 19:44N 33°19' W 123°27'0 1.8
2017-Oct-14 19:29N 33°20' W 123°27'2 1.8
2017-Oct-14 18:34N 33°21' W 123°28'0 2.2
2017-Oct-14 18:30N 33°21' W 123°28'2 2.3
2017-Oct-14 17:42N 33°22' W 123°30'2 7.6
2017-Oct-14 17:30N 33°22' W 123°32'611.7
2017-Oct-14 17:00N 33°21' W 123°39'612.7
2017-Oct-14 16:30N 33°21' W 123°47'612.7
2017-Oct-14 16:00N 33°20' W 123°54'712.6
2017-Oct-14 15:26N 33°20' W 124°03'612.4
2017-Oct-14 14:57N 33°19' W 124°10'612.4
2017-Oct-14 14:27N 33°18' W 124°17'612.2
2017-Oct-14 13:59N 33°18' W 124°24'  
2017-Oct-10 23:59N 49°08' W 123°04'0 0.0
2017-Oct-10 23:29N 49°08' W 123°04'0 0.0
2017-Oct-10 22:59N 49°08' W 123°04'0 0.0
2017-Oct-10 22:29N 49°08' W 123°04'0 0.0
2017-Oct-10 21:59N 49°08' W 123°04'0 0.0
2017-Oct-10 21:29N 49°08' W 123°04'0 0.0
2017-Oct-10 20:59N 49°08' W 123°04'0 0.0
2017-Oct-10 20:29N 49°08' W 123°04'0 0.0
2017-Oct-10 19:59N 49°08' W 123°04'0 0.0
2017-Oct-10 19:29N 49°08' W 123°04'0 0.0
2017-Oct-10 18:59N 49°08' W 123°04'0 0.0
2017-Oct-10 18:29N 49°08' W 123°04'0 0.0
2017-Oct-10 17:59N 49°08' W 123°04'0 0.0
2017-Oct-10 17:29N 49°08' W 123°04'0 0.0
2017-Oct-10 16:59N 49°08' W 123°04'0 0.0
2017-Oct-10 16:29N 49°08' W 123°04'0 0.0
2017-Oct-10 15:59N 49°08' W 123°04'0 0.0
2017-Oct-10 15:29N 49°08' W 123°04'0 0.9
2017-Oct-10 15:00N 49°07' W 123°05'1010.3
2017-Oct-10 14:00N 49°05' W 123°20'4 7.9
2017-Oct-10 13:30N 49°02' W 123°17'714.7
2017-Oct-10 13:00N 48°57' W 123°09'816.8
2017-Oct-10 12:30N 48°50' W 123°01'815.3
2017-Oct-10 12:00N 48°44' W 123°08'713.3
2017-Oct-10 11:30N 48°38' W 123°14'815.8
2017-Oct-10 11:01N 48°31' W 123°11'714.6
2017-Oct-10 10:31N 48°24' W 123°12'713.8
2017-Oct-10 10:00N 48°22' W 123°22'5 9.2
2017-Oct-10 09:31N 48°18' W 123°25'713.1
2017-Oct-10 09:00N 48°11' W 123°25'510.4
2017-Oct-10 08:30N 48°10' W 123°17'917.6
2017-Oct-10 08:00N 48°13' W 123°05'1118.6
2017-Oct-10 07:26N 48°12' W 122°49'1019.3
2017-Oct-10 06:56N 48°05' W 122°39'819.6
2017-Oct-10 06:31N 47°57' W 122°33'917.6
2017-Oct-10 06:00N 47°50' W 122°27'817.0
2017-Oct-10 05:31N 47°41' W 122°27'917.1
2017-Oct-10 05:01N 47°33' W 122°26'816.7
2017-Oct-10 04:31N 47°25' W 122°22'713.9
2017-Oct-10 04:00N 47°19' W 122°27'3 6.1
2017-Oct-10 03:28N 47°16' W 122°24'1 2.0
2017-Oct-10 02:56N 47°16' W 122°23'  

Dump ship's entire track history